sensor_id;sensor_type;location;lat;lon;timestamp;P1;durP1;ratioP1;P2;durP2;ratioP2
25609;SDS011;13479;49.044;8.716;2023-07-22T04:01:49;4.03;;;2.60;;
25609;SDS011;13479;49.044;8.716;2023-07-22T04:04:14;4.78;;;2.33;;
25609;SDS011;13479;49.044;8.716;2023-07-22T04:06:39;5.65;;;2.40;;
25609;SDS011;13479;49.044;8.716;2023-07-22T04:09:04;4.82;;;2.60;;
25609;SDS011;13479;49.044;8.716;2023-07-22T04:11:30;3.72;;;2.40;;
25609;SDS011;13479;49.044;8.716;2023-07-22T04:13:55;5.22;;;2.58;;
25609;SDS011;13479;49.044;8.716;2023-07-22T04:16:20;3.97;;;2.30;;
25609;SDS011;13479;49.044;8.716;2023-07-22T04:18:45;5.32;;;2.50;;
25609;SDS011;13479;49.044;8.716;2023-07-22T04:21:11;4.60;;;2.38;;
25609;SDS011;13479;49.044;8.716;2023-07-22T04:23:36;4.93;;;2.67;;
25609;SDS011;13479;49.044;8.716;2023-07-22T04:26:02;3.72;;;2.25;;
25609;SDS011;13479;49.044;8.716;2023-07-22T04:28:29;7.00;;;2.55;;
25609;SDS011;13479;49.044;8.716;2023-07-22T04:30:56;4.75;;;2.60;;
25609;SDS011;13479;49.044;8.716;2023-07-22T04:33:23;4.70;;;2.70;;
25609;SDS011;13479;49.044;8.716;2023-07-22T04:35:48;6.43;;;2.70;;
25609;SDS011;13479;49.044;8.716;2023-07-22T04:38:14;3.28;;;2.20;;
25609;SDS011;13479;49.044;8.716;2023-07-22T04:40:42;4.43;;;2.17;;
25609;SDS011;13479;49.044;8.716;2023-07-22T04:43:08;4.00;;;2.40;;
25609;SDS011;13479;49.044;8.716;2023-07-22T04:45:33;4.10;;;2.30;;
25609;SDS011;13479;49.044;8.716;2023-07-22T04:47:59;4.40;;;2.35;;
25609;SDS011;13479;49.044;8.716;2023-07-22T04:50:24;4.38;;;2.30;;
25609;SDS011;13479;49.044;8.716;2023-07-22T04:52:50;8.27;;;2.20;;
25609;SDS011;13479;49.044;8.716;2023-07-22T04:55:15;4.32;;;2.20;;
25609;SDS011;13479;49.044;8.716;2023-07-22T04:57:41;6.00;;;2.50;;
25609;SDS011;13479;49.044;8.716;2023-07-22T05:00:10;3.83;;;2.30;;
25609;SDS011;13479;49.044;8.716;2023-07-22T05:02:39;7.05;;;2.47;;
25609;SDS011;13479;49.044;8.716;2023-07-22T05:05:05;6.38;;;2.25;;
25609;SDS011;13479;49.044;8.716;2023-07-22T05:07:31;5.25;;;2.30;;
25609;SDS011;13479;49.044;8.716;2023-07-22T05:09:57;3.63;;;1.98;;
25609;SDS011;13479;49.044;8.716;2023-07-22T05:12:22;3.50;;;2.25;;
25609;SDS011;13479;49.044;8.716;2023-07-22T05:14:48;5.20;;;2.38;;
25609;SDS011;13479;49.044;8.716;2023-07-22T05:17:13;4.57;;;2.10;;
25609;SDS011;13479;49.044;8.716;2023-07-22T05:19:39;6.75;;;2.50;;
25609;SDS011;13479;49.044;8.716;2023-07-22T05:22:04;4.28;;;1.92;;
25609;SDS011;13479;49.044;8.716;2023-07-22T05:24:29;7.07;;;1.90;;
25609;SDS011;13479;49.044;8.716;2023-07-22T05:26:54;4.40;;;2.47;;
25609;SDS011;13479;49.044;8.716;2023-07-22T05:29:20;8.93;;;3.83;;
25609;SDS011;13479;49.044;8.716;2023-07-22T05:31:45;10.45;;;4.20;;
25609;SDS011;13479;49.044;8.716;2023-07-22T05:34:11;7.40;;;3.72;;
25609;SDS011;13479;49.044;8.716;2023-07-22T05:36:37;5.78;;;3.67;;
25609;SDS011;13479;49.044;8.716;2023-07-22T05:39:02;7.47;;;3.50;;
25609;SDS011;13479;49.044;8.716;2023-07-22T05:41:28;5.10;;;3.10;;
25609;SDS011;13479;49.044;8.716;2023-07-22T05:43:53;4.43;;;2.33;;
25609;SDS011;13479;49.044;8.716;2023-07-22T05:46:18;4.85;;;2.25;;
25609;SDS011;13479;49.044;8.716;2023-07-22T05:48:43;5.15;;;2.50;;
25609;SDS011;13479;49.044;8.716;2023-07-22T05:51:09;2.65;;;1.80;;
25609;SDS011;13479;49.044;8.716;2023-07-22T05:53:34;3.78;;;2.17;;
25609;SDS011;13479;49.044;8.716;2023-07-22T05:56:00;5.22;;;1.95;;
25609;SDS011;13479;49.044;8.716;2023-07-22T05:58:25;3.28;;;2.22;;
25609;SDS011;13479;49.044;8.716;2023-07-22T06:00:50;3.17;;;1.70;;
25609;SDS011;13479;49.044;8.716;2023-07-22T06:03:16;3.42;;;2.10;;
25609;SDS011;13479;49.044;8.716;2023-07-22T06:05:42;4.28;;;2.15;;
25609;SDS011;13479;49.044;8.716;2023-07-22T06:08:07;5.82;;;2.10;;
25609;SDS011;13479;49.044;8.716;2023-07-22T06:10:33;3.08;;;1.50;;
25609;SDS011;13479;49.044;8.716;2023-07-22T06:12:58;3.90;;;1.90;;
25609;SDS011;13479;49.044;8.716;2023-07-22T06:15:23;2.70;;;2.05;;
25609;SDS011;13479;49.044;8.716;2023-07-22T06:17:49;4.45;;;1.80;;
25609;SDS011;13479;49.044;8.716;2023-07-22T06:20:14;3.63;;;1.83;;
25609;SDS011;13479;49.044;8.716;2023-07-22T06:22:39;4.75;;;1.77;;
25609;SDS011;13479;49.044;8.716;2023-07-22T06:25:05;3.22;;;2.00;;
25609;SDS011;13479;49.044;8.716;2023-07-22T06:27:31;4.45;;;2.00;;
25609;SDS011;13479;49.044;8.716;2023-07-22T06:29:56;3.22;;;1.60;;
25609;SDS011;13479;49.044;8.716;2023-07-22T06:32:23;3.97;;;2.05;;
25609;SDS011;13479;49.044;8.716;2023-07-22T06:34:48;2.60;;;1.80;;
25609;SDS011;13479;49.044;8.716;2023-07-22T06:37:13;7.00;;;1.95;;
25609;SDS011;13479;49.044;8.716;2023-07-22T06:39:38;4.75;;;1.70;;
25609;SDS011;13479;49.044;8.716;2023-07-22T06:42:04;3.55;;;1.70;;
25609;SDS011;13479;49.044;8.716;2023-07-22T06:44:29;3.15;;;1.80;;
25609;SDS011;13479;49.044;8.716;2023-07-22T06:46:54;2.22;;;1.60;;
25609;SDS011;13479;49.044;8.716;2023-07-22T06:49:20;3.05;;;1.60;;
25609;SDS011;13479;49.044;8.716;2023-07-22T06:51:45;2.53;;;1.52;;
25609;SDS011;13479;49.044;8.716;2023-07-22T06:54:10;4.20;;;1.50;;
25609;SDS011;13479;49.044;8.716;2023-07-22T06:56:35;4.47;;;1.58;;
25609;SDS011;13479;49.044;8.716;2023-07-22T06:59:01;4.97;;;1.60;;
25609;SDS011;13479;49.044;8.716;2023-07-22T07:01:26;2.53;;;1.50;;
25609;SDS011;13479;49.044;8.716;2023-07-22T07:03:51;2.42;;;1.63;;
25609;SDS011;13479;49.044;8.716;2023-07-22T07:06:16;4.85;;;1.67;;
25609;SDS011;13479;49.044;8.716;2023-07-22T07:08:42;4.43;;;1.50;;
25609;SDS011;13479;49.044;8.716;2023-07-22T07:11:07;3.63;;;1.77;;
25609;SDS011;13479;49.044;8.716;2023-07-22T07:13:32;3.78;;;1.95;;
25609;SDS011;13479;49.044;8.716;2023-07-22T07:16:09;2.88;;;1.77;;
25609;SDS011;13479;49.044;8.716;2023-07-22T07:18:47;2.72;;;1.50;;
25609;SDS011;13479;49.044;8.716;2023-07-22T07:21:13;2.45;;;1.42;;
25609;SDS011;13479;49.044;8.716;2023-07-22T07:23:38;2.72;;;1.90;;
25609;SDS011;13479;49.044;8.716;2023-07-22T07:26:03;5.50;;;1.60;;
25609;SDS011;13479;49.044;8.716;2023-07-22T07:28:29;1.30;;;1.20;;
25609;SDS011;13479;49.044;8.716;2023-07-22T07:30:54;2.72;;;1.73;;
25609;SDS011;13479;49.044;8.716;2023-07-22T07:33:19;1.80;;;1.33;;
25609;SDS011;13479;49.044;8.716;2023-07-22T07:35:47;3.03;;;1.35;;
25609;SDS011;13479;49.044;8.716;2023-07-22T07:38:12;3.08;;;1.70;;
25609;SDS011;13479;49.044;8.716;2023-07-22T07:40:38;2.95;;;1.50;;
25609;SDS011;13479;49.044;8.716;2023-07-22T07:43:03;2.03;;;1.67;;
25609;SDS011;13479;49.044;8.716;2023-07-22T07:45:28;3.53;;;1.70;;
25609;SDS011;13479;49.044;8.716;2023-07-22T07:47:54;3.90;;;1.77;;
25609;SDS011;13479;49.044;8.716;2023-07-22T07:50:19;2.92;;;1.60;;
25609;SDS011;13479;49.044;8.716;2023-07-22T07:52:44;1.92;;;1.60;;
25609;SDS011;13479;49.044;8.716;2023-07-22T07:55:10;4.35;;;1.33;;
25609;SDS011;13479;49.044;8.716;2023-07-22T07:57:35;1.77;;;1.33;;
25609;SDS011;13479;49.044;8.716;2023-07-22T08:00:00;2.72;;;1.50;;
25609;SDS011;13479;49.044;8.716;2023-07-22T08:02:25;1.90;;;1.20;;
25609;SDS011;13479;49.044;8.716;2023-07-22T08:04:51;1.95;;;1.30;;
25609;SDS011;13479;49.044;8.716;2023-07-22T08:07:16;2.25;;;1.25;;
25609;SDS011;13479;49.044;8.716;2023-07-22T08:09:42;2.42;;;1.50;;
25609;SDS011;13479;49.044;8.716;2023-07-22T08:12:07;3.00;;;1.70;;
25609;SDS011;13479;49.044;8.716;2023-07-22T08:14:33;1.60;;;1.35;;
25609;SDS011;13479;49.044;8.716;2023-07-22T08:16:58;2.22;;;1.38;;
25609;SDS011;13479;49.044;8.716;2023-07-22T08:19:23;2.42;;;1.35;;
25609;SDS011;13479;49.044;8.716;2023-07-22T08:21:49;2.90;;;1.65;;
25609;SDS011;13479;49.044;8.716;2023-07-22T08:24:14;2.15;;;1.33;;
25609;SDS011;13479;49.044;8.716;2023-07-22T08:26:39;4.18;;;1.50;;
25609;SDS011;13479;49.044;8.716;2023-07-22T08:29:04;2.33;;;1.27;;
25609;SDS011;13479;49.044;8.716;2023-07-22T08:31:30;3.63;;;1.50;;
25609;SDS011;13479;49.044;8.716;2023-07-22T08:33:55;2.20;;;1.45;;
25609;SDS011;13479;49.044;8.716;2023-07-22T08:36:20;5.97;;;1.38;;
25609;SDS011;13479;49.044;8.716;2023-07-22T08:38:46;2.75;;;1.30;;
25609;SDS011;13479;49.044;8.716;2023-07-22T08:41:14;4.18;;;1.38;;
25609;SDS011;13479;49.044;8.716;2023-07-22T08:43:41;2.15;;;1.38;;
25609;SDS011;13479;49.044;8.716;2023-07-22T08:46:06;1.83;;;1.30;;
25609;SDS011;13479;49.044;8.716;2023-07-22T08:48:33;1.70;;;1.20;;
25609;SDS011;13479;49.044;8.716;2023-07-22T08:51:10;1.92;;;1.38;;
25609;SDS011;13479;49.044;8.716;2023-07-22T08:53:40;2.03;;;1.20;;
25609;SDS011;13479;49.044;8.716;2023-07-22T08:56:05;4.85;;;1.58;;
25609;SDS011;13479;49.044;8.716;2023-07-22T08:58:30;3.80;;;1.35;;
25609;SDS011;13479;49.044;8.716;2023-07-22T09:00:57;1.98;;;1.20;;
25609;SDS011;13479;49.044;8.716;2023-07-22T09:03:23;3.25;;;1.20;;
25609;SDS011;13479;49.044;8.716;2023-07-22T09:05:49;2.53;;;1.27;;
25609;SDS011;13479;49.044;8.716;2023-07-22T09:08:14;2.17;;;1.58;;
25609;SDS011;13479;49.044;8.716;2023-07-22T09:10:40;2.13;;;1.38;;
25609;SDS011;13479;49.044;8.716;2023-07-22T09:13:06;3.22;;;1.35;;
25609;SDS011;13479;49.044;8.716;2023-07-22T09:15:34;2.55;;;1.30;;
25609;SDS011;13479;49.044;8.716;2023-07-22T09:18:01;3.55;;;1.27;;
25609;SDS011;13479;49.044;8.716;2023-07-22T09:20:26;1.90;;;1.17;;
25609;SDS011;13479;49.044;8.716;2023-07-22T09:22:54;2.72;;;1.10;;
25609;SDS011;13479;49.044;8.716;2023-07-22T09:25:23;1.80;;;1.33;;
25609;SDS011;13479;49.044;8.716;2023-07-22T09:27:52;1.95;;;1.15;;
25609;SDS011;13479;49.044;8.716;2023-07-22T09:30:29;1.75;;;1.10;;
25609;SDS011;13479;49.044;8.716;2023-07-22T09:33:01;2.60;;;1.52;;
25609;SDS011;13479;49.044;8.716;2023-07-22T09:35:28;2.45;;;1.30;;
25609;SDS011;13479;49.044;8.716;2023-07-22T09:37:55;2.10;;;1.08;;
25609;SDS011;13479;49.044;8.716;2023-07-22T09:40:22;5.78;;;1.10;;
25609;SDS011;13479;49.044;8.716;2023-07-22T09:42:49;2.55;;;1.20;;
25609;SDS011;13479;49.044;8.716;2023-07-22T09:45:20;1.17;;;0.80;;
25609;SDS011;13479;49.044;8.716;2023-07-22T09:47:48;2.00;;;1.10;;
25609;SDS011;13479;49.044;8.716;2023-07-22T09:50:18;2.65;;;1.25;;
25609;SDS011;13479;49.044;8.716;2023-07-22T09:55:18;2.70;;;1.20;;
25609;SDS011;13479;49.044;8.716;2023-07-22T09:57:46;2.38;;;1.38;;
25609;SDS011;13479;49.044;8.716;2023-07-22T10:00:15;5.13;;;1.60;;
25609;SDS011;13479;49.044;8.716;2023-07-22T10:02:42;1.98;;;1.20;;
25609;SDS011;13479;49.044;8.716;2023-07-22T10:05:12;3.55;;;1.38;;
25609;SDS011;13479;49.044;8.716;2023-07-22T10:07:43;2.25;;;1.15;;
25609;SDS011;13479;49.044;8.716;2023-07-22T10:10:11;2.40;;;1.40;;
25609;SDS011;13479;49.044;8.716;2023-07-22T10:12:39;3.28;;;1.15;;
25609;SDS011;13479;49.044;8.716;2023-07-22T10:15:07;5.38;;;1.42;;
25609;SDS011;13479;49.044;8.716;2023-07-22T10:17:32;3.65;;;1.40;;
25609;SDS011;13479;49.044;8.716;2023-07-22T10:19:59;2.47;;;1.42;;
25609;SDS011;13479;49.044;8.716;2023-07-22T10:22:24;2.33;;;1.50;;
25609;SDS011;13479;49.044;8.716;2023-07-22T10:24:50;3.95;;;1.40;;
25609;SDS011;13479;49.044;8.716;2023-07-22T10:27:17;3.55;;;1.50;;
25609;SDS011;13479;49.044;8.716;2023-07-22T10:29:43;1.27;;;1.10;;
25609;SDS011;13479;49.044;8.716;2023-07-22T10:32:10;2.45;;;1.10;;
25609;SDS011;13479;49.044;8.716;2023-07-22T10:34:35;2.13;;;1.20;;
25609;SDS011;13479;49.044;8.716;2023-07-22T10:37:01;2.72;;;1.33;;
25609;SDS011;13479;49.044;8.716;2023-07-22T10:39:27;2.92;;;0.82;;
25609;SDS011;13479;49.044;8.716;2023-07-22T10:42:05;4.32;;;1.23;;
25609;SDS011;13479;49.044;8.716;2023-07-22T10:44:32;2.03;;;1.15;;
25609;SDS011;13479;49.044;8.716;2023-07-22T10:47:01;2.33;;;1.20;;
25609;SDS011;13479;49.044;8.716;2023-07-22T10:49:42;1.48;;;0.90;;
25609;SDS011;13479;49.044;8.716;2023-07-22T10:52:12;1.52;;;0.90;;
25609;SDS011;13479;49.044;8.716;2023-07-22T10:54:40;1.85;;;1.02;;
25609;SDS011;13479;49.044;8.716;2023-07-22T10:59:43;4.30;;;1.40;;
25609;SDS011;13479;49.044;8.716;2023-07-22T11:02:22;5.97;;;1.45;;
25609;SDS011;13479;49.044;8.716;2023-07-22T11:04:49;8.35;;;1.85;;
25609;SDS011;13479;49.044;8.716;2023-07-22T11:07:14;3.33;;;1.38;;
25609;SDS011;13479;49.044;8.716;2023-07-22T11:09:40;6.05;;;1.50;;
25609;SDS011;13479;49.044;8.716;2023-07-22T11:14:48;4.78;;;1.30;;
25609;SDS011;13479;49.044;8.716;2023-07-22T11:17:15;2.70;;;1.10;;
25609;SDS011;13479;49.044;8.716;2023-07-22T11:19:42;2.83;;;1.30;;
25609;SDS011;13479;49.044;8.716;2023-07-22T11:22:08;2.03;;;1.10;;
25609;SDS011;13479;49.044;8.716;2023-07-22T11:24:34;1.60;;;1.10;;
25609;SDS011;13479;49.044;8.716;2023-07-22T11:27:03;1.88;;;1.00;;
25609;SDS011;13479;49.044;8.716;2023-07-22T11:29:29;2.15;;;1.20;;
25609;SDS011;13479;49.044;8.716;2023-07-22T11:31:55;1.63;;;1.25;;
25609;SDS011;13479;49.044;8.716;2023-07-22T11:34:21;3.10;;;1.02;;
25609;SDS011;13479;49.044;8.716;2023-07-22T11:36:48;1.70;;;1.10;;
25609;SDS011;13479;49.044;8.716;2023-07-22T11:39:16;4.25;;;1.38;;
25609;SDS011;13479;49.044;8.716;2023-07-22T11:41:43;1.92;;;1.00;;
25609;SDS011;13479;49.044;8.716;2023-07-22T11:44:10;2.90;;;1.33;;
25609;SDS011;13479;49.044;8.716;2023-07-22T11:46:53;3.45;;;1.50;;
25609;SDS011;13479;49.044;8.716;2023-07-22T11:49:30;3.85;;;1.15;;
25609;SDS011;13479;49.044;8.716;2023-07-22T11:51:58;2.13;;;1.27;;
25609;SDS011;13479;49.044;8.716;2023-07-22T11:54:29;28.70;;;3.25;;
25609;SDS011;13479;49.044;8.716;2023-07-22T11:56:55;2.60;;;1.23;;
25609;SDS011;13479;49.044;8.716;2023-07-22T11:59:33;4.00;;;1.35;;
25609;SDS011;13479;49.044;8.716;2023-07-22T12:02:00;4.57;;;1.60;;
25609;SDS011;13479;49.044;8.716;2023-07-22T12:04:26;9.10;;;1.60;;
25609;SDS011;13479;49.044;8.716;2023-07-22T12:06:52;17.83;;;2.10;;
25609;SDS011;13479;49.044;8.716;2023-07-22T12:09:17;6.82;;;1.55;;
25609;SDS011;13479;49.044;8.716;2023-07-22T12:11:42;2.70;;;1.40;;
25609;SDS011;13479;49.044;8.716;2023-07-22T12:14:11;3.58;;;1.48;;
25609;SDS011;13479;49.044;8.716;2023-07-22T12:16:38;10.77;;;1.63;;
25609;SDS011;13479;49.044;8.716;2023-07-22T12:19:06;4.47;;;1.60;;
25609;SDS011;13479;49.044;8.716;2023-07-22T12:21:32;5.28;;;1.45;;
25609;SDS011;13479;49.044;8.716;2023-07-22T12:23:58;4.20;;;1.40;;
25609;SDS011;13479;49.044;8.716;2023-07-22T12:26:23;8.98;;;1.85;;
25609;SDS011;13479;49.044;8.716;2023-07-22T12:28:49;2.45;;;1.33;;
25609;SDS011;13479;49.044;8.716;2023-07-22T12:31:14;3.30;;;1.40;;
25609;SDS011;13479;49.044;8.716;2023-07-22T12:33:39;3.65;;;1.40;;
25609;SDS011;13479;49.044;8.716;2023-07-22T12:36:04;2.35;;;1.20;;
25609;SDS011;13479;49.044;8.716;2023-07-22T12:38:30;5.07;;;1.40;;
25609;SDS011;13479;49.044;8.716;2023-07-22T12:40:56;4.05;;;1.10;;
25609;SDS011;13479;49.044;8.716;2023-07-22T12:43:21;2.13;;;1.20;;
25609;SDS011;13479;49.044;8.716;2023-07-22T12:45:46;3.22;;;1.15;;
25609;SDS011;13479;49.044;8.716;2023-07-22T12:48:12;6.43;;;1.30;;
25609;SDS011;13479;49.044;8.716;2023-07-22T12:50:37;1.65;;;1.20;;
25609;SDS011;13479;49.044;8.716;2023-07-22T12:53:03;2.75;;;1.35;;
25609;SDS011;13479;49.044;8.716;2023-07-22T12:55:28;2.83;;;1.17;;
25609;SDS011;13479;49.044;8.716;2023-07-22T12:57:54;2.67;;;1.45;;
25609;SDS011;13479;49.044;8.716;2023-07-22T13:00:19;2.25;;;1.50;;
25609;SDS011;13479;49.044;8.716;2023-07-22T13:02:45;2.45;;;1.40;;
25609;SDS011;13479;49.044;8.716;2023-07-22T13:05:11;3.42;;;1.25;;
25609;SDS011;13479;49.044;8.716;2023-07-22T13:07:36;4.70;;;1.20;;
25609;SDS011;13479;49.044;8.716;2023-07-22T13:10:05;4.82;;;1.35;;
25609;SDS011;13479;49.044;8.716;2023-07-22T13:12:35;2.80;;;1.40;;
25609;SDS011;13479;49.044;8.716;2023-07-22T13:15:01;5.88;;;1.40;;
25609;SDS011;13479;49.044;8.716;2023-07-22T13:17:27;2.67;;;1.02;;
25609;SDS011;13479;49.044;8.716;2023-07-22T13:19:52;3.90;;;1.30;;
25609;SDS011;13479;49.044;8.716;2023-07-22T13:22:17;2.92;;;1.10;;
25609;SDS011;13479;49.044;8.716;2023-07-22T13:24:43;1.95;;;1.23;;
25609;SDS011;13479;49.044;8.716;2023-07-22T13:27:08;2.08;;;1.20;;
25609;SDS011;13479;49.044;8.716;2023-07-22T13:29:33;4.85;;;1.40;;
25609;SDS011;13479;49.044;8.716;2023-07-22T13:31:59;4.72;;;1.50;;
25609;SDS011;13479;49.044;8.716;2023-07-22T13:34:24;2.22;;;1.50;;
25609;SDS011;13479;49.044;8.716;2023-07-22T13:36:50;2.47;;;1.45;;
25609;SDS011;13479;49.044;8.716;2023-07-22T13:39:15;4.03;;;1.70;;
25609;SDS011;13479;49.044;8.716;2023-07-22T13:41:41;2.75;;;1.40;;
25609;SDS011;13479;49.044;8.716;2023-07-22T13:44:06;2.13;;;1.35;;
25609;SDS011;13479;49.044;8.716;2023-07-22T13:46:31;2.60;;;1.38;;
25609;SDS011;13479;49.044;8.716;2023-07-22T13:48:57;2.15;;;1.40;;
25609;SDS011;13479;49.044;8.716;2023-07-22T13:51:22;2.55;;;1.40;;
25609;SDS011;13479;49.044;8.716;2023-07-22T13:53:47;3.72;;;1.13;;
25609;SDS011;13479;49.044;8.716;2023-07-22T13:56:12;1.90;;;1.27;;
25609;SDS011;13479;49.044;8.716;2023-07-22T13:58:38;2.45;;;1.40;;
25609;SDS011;13479;49.044;8.716;2023-07-22T14:01:03;2.08;;;1.40;;
25609;SDS011;13479;49.044;8.716;2023-07-22T14:03:28;3.92;;;1.30;;
25609;SDS011;13479;49.044;8.716;2023-07-22T14:05:54;3.22;;;1.33;;
25609;SDS011;13479;49.044;8.716;2023-07-22T14:08:19;2.70;;;1.35;;
25609;SDS011;13479;49.044;8.716;2023-07-22T14:10:44;2.90;;;1.50;;
25609;SDS011;13479;49.044;8.716;2023-07-22T14:13:09;5.13;;;1.40;;
25609;SDS011;13479;49.044;8.716;2023-07-22T14:15:35;2.55;;;1.30;;
25609;SDS011;13479;49.044;8.716;2023-07-22T14:18:01;3.55;;;1.17;;
25609;SDS011;13479;49.044;8.716;2023-07-22T14:20:26;3.13;;;1.50;;
25609;SDS011;13479;49.044;8.716;2023-07-22T14:22:53;3.35;;;1.40;;
25609;SDS011;13479;49.044;8.716;2023-07-22T14:25:18;1.85;;;1.33;;
25609;SDS011;13479;49.044;8.716;2023-07-22T14:27:44;2.47;;;1.60;;
25609;SDS011;13479;49.044;8.716;2023-07-22T14:30:09;1.70;;;1.30;;
25609;SDS011;13479;49.044;8.716;2023-07-22T14:32:34;2.15;;;1.30;;
25609;SDS011;13479;49.044;8.716;2023-07-22T14:35:01;2.63;;;1.73;;
25609;SDS011;13479;49.044;8.716;2023-07-22T14:37:26;2.63;;;1.42;;
25609;SDS011;13479;49.044;8.716;2023-07-22T14:39:52;2.20;;;1.60;;
25609;SDS011;13479;49.044;8.716;2023-07-22T14:42:18;2.35;;;1.42;;
25609;SDS011;13479;49.044;8.716;2023-07-22T14:44:43;2.75;;;1.70;;
25609;SDS011;13479;49.044;8.716;2023-07-22T14:47:08;3.22;;;1.40;;
25609;SDS011;13479;49.044;8.716;2023-07-22T14:49:33;3.90;;;1.63;;
25609;SDS011;13479;49.044;8.716;2023-07-22T14:51:59;1.80;;;1.40;;
25609;SDS011;13479;49.044;8.716;2023-07-22T14:54:24;3.00;;;1.73;;
25609;SDS011;13479;49.044;8.716;2023-07-22T14:56:49;3.15;;;1.30;;
25609;SDS011;13479;49.044;8.716;2023-07-22T14:59:15;3.15;;;1.75;;
25609;SDS011;13479;49.044;8.716;2023-07-22T15:01:40;3.03;;;1.90;;
25609;SDS011;13479;49.044;8.716;2023-07-22T15:04:06;3.85;;;1.70;;
25609;SDS011;13479;49.044;8.716;2023-07-22T15:06:32;2.72;;;1.58;;
25609;SDS011;13479;49.044;8.716;2023-07-22T15:08:58;4.30;;;1.40;;
25609;SDS011;13479;49.044;8.716;2023-07-22T15:11:23;7.88;;;1.60;;
25609;SDS011;13479;49.044;8.716;2023-07-22T15:13:49;4.40;;;1.33;;
25609;SDS011;13479;49.044;8.716;2023-07-22T15:16:14;3.42;;;1.70;;
25609;SDS011;13479;49.044;8.716;2023-07-22T15:18:40;4.70;;;1.50;;
25609;SDS011;13479;49.044;8.716;2023-07-22T15:21:06;2.65;;;1.60;;
25609;SDS011;13479;49.044;8.716;2023-07-22T15:23:31;2.83;;;1.40;;
25609;SDS011;13479;49.044;8.716;2023-07-22T15:25:57;2.20;;;1.52;;
25609;SDS011;13479;49.044;8.716;2023-07-22T15:28:23;1.95;;;1.65;;
25609;SDS011;13479;49.044;8.716;2023-07-22T15:30:48;2.30;;;1.48;;
25609;SDS011;13479;49.044;8.716;2023-07-22T15:33:13;2.75;;;1.70;;
25609;SDS011;13479;49.044;8.716;2023-07-22T15:35:38;4.18;;;1.75;;
25609;SDS011;13479;49.044;8.716;2023-07-22T15:38:04;2.67;;;1.65;;
25609;SDS011;13479;49.044;8.716;2023-07-22T15:40:29;3.25;;;1.60;;
25609;SDS011;13479;49.044;8.716;2023-07-22T15:42:54;2.42;;;1.60;;
25609;SDS011;13479;49.044;8.716;2023-07-22T15:45:20;2.88;;;1.67;;
25609;SDS011;13479;49.044;8.716;2023-07-22T15:47:46;3.58;;;1.70;;
25609;SDS011;13479;49.044;8.716;2023-07-22T15:50:11;2.67;;;1.65;;
25609;SDS011;13479;49.044;8.716;2023-07-22T15:52:37;2.67;;;1.50;;
25609;SDS011;13479;49.044;8.716;2023-07-22T15:55:02;1.92;;;1.42;;
25609;SDS011;13479;49.044;8.716;2023-07-22T15:57:27;3.20;;;1.80;;
25609;SDS011;13479;49.044;8.716;2023-07-22T15:59:52;2.90;;;1.67;;
25609;SDS011;13479;49.044;8.716;2023-07-22T16:02:18;3.33;;;1.80;;
25609;SDS011;13479;49.044;8.716;2023-07-22T16:04:43;5.40;;;1.85;;
25609;SDS011;13479;49.044;8.716;2023-07-22T16:07:09;4.00;;;1.70;;
25609;SDS011;13479;49.044;8.716;2023-07-22T16:09:34;5.18;;;2.10;;
25609;SDS011;13479;49.044;8.716;2023-07-22T16:12:00;3.15;;;1.70;;
25609;SDS011;13479;49.044;8.716;2023-07-22T16:14:27;2.92;;;1.90;;
25609;SDS011;13479;49.044;8.716;2023-07-22T16:16:52;3.03;;;1.80;;
25609;SDS011;13479;49.044;8.716;2023-07-22T16:19:18;4.07;;;2.13;;
25609;SDS011;13479;49.044;8.716;2023-07-22T16:21:43;3.35;;;2.10;;
25609;SDS011;13479;49.044;8.716;2023-07-22T16:24:08;3.10;;;1.90;;
25609;SDS011;13479;49.044;8.716;2023-07-22T16:26:33;3.72;;;1.80;;
25609;SDS011;13479;49.044;8.716;2023-07-22T16:29:01;5.85;;;2.10;;
25609;SDS011;13479;49.044;8.716;2023-07-22T16:31:27;3.35;;;1.90;;
25609;SDS011;13479;49.044;8.716;2023-07-22T16:33:52;3.92;;;2.00;;
25609;SDS011;13479;49.044;8.716;2023-07-22T16:36:17;2.90;;;1.95;;
25609;SDS011;13479;49.044;8.716;2023-07-22T16:38:42;4.68;;;1.95;;
25609;SDS011;13479;49.044;8.716;2023-07-22T16:41:08;4.57;;;2.45;;
25609;SDS011;13479;49.044;8.716;2023-07-22T16:43:33;2.65;;;1.98;;
25609;SDS011;13479;49.044;8.716;2023-07-22T16:45:58;3.72;;;2.08;;
25609;SDS011;13479;49.044;8.716;2023-07-22T16:48:23;2.80;;;1.95;;
25609;SDS011;13479;49.044;8.716;2023-07-22T16:50:49;3.42;;;2.00;;
25609;SDS011;13479;49.044;8.716;2023-07-22T16:53:14;2.55;;;1.60;;
25609;SDS011;13479;49.044;8.716;2023-07-22T16:55:39;3.53;;;1.77;;
25609;SDS011;13479;49.044;8.716;2023-07-22T16:58:05;5.68;;;1.77;;
25609;SDS011;13479;49.044;8.716;2023-07-22T17:00:30;3.35;;;1.70;;
25609;SDS011;13479;49.044;8.716;2023-07-22T17:02:56;3.53;;;2.13;;
25609;SDS011;13479;49.044;8.716;2023-07-22T17:05:21;3.30;;;1.90;;
25609;SDS011;13479;49.044;8.716;2023-07-22T17:07:46;5.13;;;2.00;;
25609;SDS011;13479;49.044;8.716;2023-07-22T17:10:12;3.00;;;1.77;;
25609;SDS011;13479;49.044;8.716;2023-07-22T17:12:37;3.30;;;2.00;;
25609;SDS011;13479;49.044;8.716;2023-07-22T17:15:05;3.15;;;2.05;;
25609;SDS011;13479;49.044;8.716;2023-07-22T17:17:31;3.40;;;2.00;;
25609;SDS011;13479;49.044;8.716;2023-07-22T17:19:56;3.88;;;2.00;;
25609;SDS011;13479;49.044;8.716;2023-07-22T17:22:21;3.90;;;1.90;;
25609;SDS011;13479;49.044;8.716;2023-07-22T17:24:47;2.95;;;1.70;;
25609;SDS011;13479;49.044;8.716;2023-07-22T17:27:12;3.40;;;1.95;;
25609;SDS011;13479;49.044;8.716;2023-07-22T17:29:37;4.43;;;1.90;;
25609;SDS011;13479;49.044;8.716;2023-07-22T17:32:03;3.90;;;2.03;;
25609;SDS011;13479;49.044;8.716;2023-07-22T17:34:28;3.75;;;2.05;;
25609;SDS011;13479;49.044;8.716;2023-07-22T17:36:54;2.53;;;1.67;;
25609;SDS011;13479;49.044;8.716;2023-07-22T17:39:19;3.75;;;1.90;;
25609;SDS011;13479;49.044;8.716;2023-07-22T17:41:44;3.45;;;1.75;;
25609;SDS011;13479;49.044;8.716;2023-07-22T17:44:10;3.33;;;1.77;;
25609;SDS011;13479;49.044;8.716;2023-07-22T17:46:36;2.35;;;1.70;;
25609;SDS011;13479;49.044;8.716;2023-07-22T17:49:01;5.68;;;2.00;;
25609;SDS011;13479;49.044;8.716;2023-07-22T17:51:26;2.92;;;1.88;;
25609;SDS011;13479;49.044;8.716;2023-07-22T17:53:51;9.45;;;2.10;;
25609;SDS011;13479;49.044;8.716;2023-07-22T17:56:17;3.13;;;1.90;;
25609;SDS011;13479;49.044;8.716;2023-07-22T17:58:42;3.25;;;1.90;;
25609;SDS011;13479;49.044;8.716;2023-07-22T18:01:07;2.85;;;1.83;;
25609;SDS011;13479;49.044;8.716;2023-07-22T18:03:32;4.05;;;1.73;;
25609;SDS011;13479;49.044;8.716;2023-07-22T18:05:58;3.45;;;1.80;;
25609;SDS011;13479;49.044;8.716;2023-07-22T18:08:23;2.97;;;1.85;;
25609;SDS011;13479;49.044;8.716;2023-07-22T18:10:49;5.22;;;2.10;;
25609;SDS011;13479;49.044;8.716;2023-07-22T18:13:14;2.58;;;1.63;;
25609;SDS011;13479;49.044;8.716;2023-07-22T18:15:39;4.32;;;1.88;;
25609;SDS011;13479;49.044;8.716;2023-07-22T18:18:04;3.65;;;1.80;;
25609;SDS011;13479;49.044;8.716;2023-07-22T18:20:29;2.95;;;1.70;;
25609;SDS011;13479;49.044;8.716;2023-07-22T18:22:55;3.42;;;1.83;;
25609;SDS011;13479;49.044;8.716;2023-07-22T18:25:20;4.80;;;1.65;;
25609;SDS011;13479;49.044;8.716;2023-07-22T18:27:45;3.55;;;1.67;;
25609;SDS011;13479;49.044;8.716;2023-07-22T18:30:11;3.28;;;1.80;;
25609;SDS011;13479;49.044;8.716;2023-07-22T18:32:36;4.13;;;1.77;;
25609;SDS011;13479;49.044;8.716;2023-07-22T18:35:02;4.50;;;2.10;;
25609;SDS011;13479;49.044;8.716;2023-07-22T18:37:27;3.05;;;1.70;;
25609;SDS011;13479;49.044;8.716;2023-07-22T18:39:53;3.88;;;2.00;;
25609;SDS011;13479;49.044;8.716;2023-07-22T18:42:18;3.72;;;2.00;;
25609;SDS011;13479;49.044;8.716;2023-07-22T18:44:44;3.17;;;1.75;;
25609;SDS011;13479;49.044;8.716;2023-07-22T18:47:09;5.30;;;2.10;;
25609;SDS011;13479;49.044;8.716;2023-07-22T18:49:34;5.53;;;2.17;;